This is the latest recevied weather packets stored in our database for station/object ED2YAA-3. If no packets are shown the sender has not sent any weather packets the latest 10 day(s).
| Time | Temp. | Humidity | Pressure | Rain* | Wind** | Luminosity | Snow |
|---|---|---|---|---|---|---|---|
| 1777674924 | 19.44° C | 67% | 995.9 hPa | 0 mm | - | - | - |
| 1777671662 | 19.44° C | 67% | 996.3 hPa | 0 mm | - | - | - |
| 1777671323 | 19.44° C | 67% | 996.2 hPa | 0 mm | - | - | - |
| 1777668062 | 20.56° C | 65% | 996.3 hPa | 0 mm | - | - | - |
| 1777667725 | 20.56° C | 65% | 996.1 hPa | 0 mm | - | - | - |
| 1777664461 | 22.22° C | 59% | 995.8 hPa | 0 mm | - | - | - |
| 1777664125 | 22.22° C | 58% | 995.8 hPa | 0 mm | - | - | - |
| 1777660861 | 23.89° C | 54% | 995.4 hPa | 0 mm | - | - | - |
| 1777660524 | 23.89° C | 54% | 995.3 hPa | 0 mm | - | - | - |
| 1777657260 | 25° C | 51% | 995.1 hPa | 0 mm | - | - | - |
| 1777656924 | 25.56° C | 51% | 995.1 hPa | 0 mm | - | - | - |
| 1777653660 | 26.67° C | 49% | 995.1 hPa | 0 mm | - | - | - |
| 1777653323 | 26.67° C | 49% | 995 hPa | 0 mm | - | - | - |
| 1777650060 | 25.56° C | 50% | 995.1 hPa | 0 mm | - | - | - |
| 1777649723 | 25.56° C | 50% | 995.2 hPa | 0 mm | - | - | - |
| 1777646460 | 25° C | 51% | 995.4 hPa | 0 mm | - | - | - |
| 1777646123 | 25° C | 51% | 995.4 hPa | 0 mm | - | - | - |
| 1777642861 | 25° C | 53% | 996.2 hPa | 0 mm | - | - | - |
| 1777642524 | 25° C | 52% | 996.2 hPa | 0 mm | - | - | - |
| 1777639259 | 26.67° C | 49% | 996.4 hPa | 0 mm | - | - | - |
| 1777638922 | 26.67° C | 49% | 996.5 hPa | 0 mm | - | - | - |
| 1777635661 | 25.56° C | 53% | 996.9 hPa | 0 mm | - | - | - |
| 1777635324 | 25.56° C | 54% | 997 hPa | 0 mm | - | - | - |
| 1777632060 | 23.33° C | 56% | 997.4 hPa | 0 mm | - | - | - |
| 1777631724 | 23.33° C | 56% | 997.5 hPa | 0 mm | - | - | - |
* Rain latest hour (hover to see other rain measurements)
** Current wind speed in m/s (hover to see current wind gust speed)